EZY68GL EGGP-EGNS
Flight info
| Callsign | EZY68GL |
|---|---|
| Flight time | 0h 20m |
| Altitude | 16000 |
| Route | WAL M146 LUSOD DCT IOM |
| Aircraft | A320/M-SDE2E3FGHIJ1RWXYZ/LB1 |
Departure
| Time | 2026-04-17 13:38 |
|---|---|
| Airport | Liverpool John Lennon Airport (EGGP) |
Arrival
| Time | 2026-04-17 13:58 |
|---|---|
| Airport | Isle of Man Airport (EGNS) |
| Time | Latitude | Longitude | Altitude | Speed | Heading |
|---|---|---|---|---|---|
| 2026-04-17 13:13 | 53.33665 | -2.85513 | 86 ft | 0 kts | 356° |
| 2026-04-17 13:19 | 53.33664 | -2.85513 | 86 ft | 1 kts | 356° |
| 2026-04-17 13:19 | 53.33645 | -2.85511 | 86 ft | 3 kts | 356° |
| 2026-04-17 13:19 | 53.33626 | -2.85511 | 89 ft | 3 kts | 25° |
| 2026-04-17 13:20 | 53.33615 | -2.85529 | 85 ft | 3 kts | 80° |
| 2026-04-17 13:20 | 53.33613 | -2.85559 | 85 ft | 2 kts | 86° |
| 2026-04-17 13:20 | 53.33611 | -2.85593 | 85 ft | 3 kts | 86° |
| 2026-04-17 13:20 | 53.33609 | -2.85628 | 85 ft | 3 kts | 86° |
| 2026-04-17 13:21 | 53.33608 | -2.85663 | 85 ft | 3 kts | 86° |
| 2026-04-17 13:21 | 53.33606 | -2.85698 | 85 ft | 3 kts | 86° |
| 2026-04-17 13:21 | 53.33604 | -2.85733 | 85 ft | 3 kts | 86° |
| 2026-04-17 13:21 | 53.33603 | -2.85768 | 88 ft | 3 kts | 86° |
| 2026-04-17 13:22 | 53.33601 | -2.85802 | 85 ft | 3 kts | 86° |
| 2026-04-17 13:22 | 53.33599 | -2.85836 | 85 ft | 3 kts | 86° |
| 2026-04-17 13:22 | 53.33598 | -2.85871 | 85 ft | 3 kts | 85° |
| 2026-04-17 13:22 | 53.33596 | -2.85906 | 89 ft | 3 kts | 86° |
| 2026-04-17 13:23 | 53.33595 | -2.85941 | 89 ft | 3 kts | 89° |
| 2026-04-17 13:23 | 53.33595 | -2.85976 | 90 ft | 3 kts | 89° |
| 2026-04-17 13:23 | 53.33594 | -2.86011 | 89 ft | 3 kts | 87° |
| 2026-04-17 13:23 | 53.33593 | -2.86046 | 90 ft | 3 kts | 86° |
| 2026-04-17 13:24 | 53.33592 | -2.86079 | 88 ft | 2 kts | 86° |
| 2026-04-17 13:24 | 53.33592 | -2.86081 | 85 ft | 0 kts | 86° |
| 2026-04-17 13:29 | 53.33594 | -2.86027 | 85 ft | 10 kts | 86° |
| 2026-04-17 13:30 | 53.33556 | -2.85937 | 87 ft | 10 kts | 175° |
| 2026-04-17 13:30 | 53.33488 | -2.85893 | 85 ft | 12 kts | 107° |
| 2026-04-17 13:30 | 53.33494 | -2.85742 | 86 ft | 16 kts | 85° |
| 2026-04-17 13:30 | 53.33503 | -2.85534 | 84 ft | 18 kts | 86° |
| 2026-04-17 13:31 | 53.33513 | -2.85331 | 84 ft | 17 kts | 85° |
| 2026-04-17 13:31 | 53.33521 | -2.85141 | 86 ft | 16 kts | 86° |
| 2026-04-17 13:31 | 53.33529 | -2.84964 | 85 ft | 15 kts | 85° |
| 2026-04-17 13:31 | 53.33538 | -2.84755 | 85 ft | 23 kts | 85° |
| 2026-04-17 13:32 | 53.33552 | -2.84464 | 78 ft | 26 kts | 85° |
| 2026-04-17 13:32 | 53.33564 | -2.84200 | 78 ft | 20 kts | 85° |
| 2026-04-17 13:32 | 53.33576 | -2.83966 | 70 ft | 21 kts | 85° |
| 2026-04-17 13:32 | 53.33587 | -2.83737 | 74 ft | 16 kts | 86° |
| 2026-04-17 13:33 | 53.33594 | -2.83568 | 70 ft | 12 kts | 85° |
| 2026-04-17 13:33 | 53.33599 | -2.83436 | 68 ft | 10 kts | 89° |
| 2026-04-17 13:33 | 53.33575 | -2.83333 | 67 ft | 9 kts | 130° |
| 2026-04-17 13:33 | 53.33549 | -2.83306 | 76 ft | 0 kts | 159° |
| 2026-04-17 13:34 | 53.33541 | -2.83302 | 76 ft | 0 kts | 164° |
| 2026-04-17 13:37 | 53.33539 | -2.83302 | 64 ft | 2 kts | 164° |
| 2026-04-17 13:37 | 53.33493 | -2.83295 | 78 ft | 8 kts | 176° |
| 2026-04-17 13:37 | 53.33442 | -2.83322 | 81 ft | 8 kts | 239° |
| 2026-04-17 13:37 | 53.33426 | -2.83614 | 74 ft | 59 kts | 265° |
| 2026-04-17 13:38 | 53.33376 | -2.84709 | 76 ft | 127 kts | 265° |
| 2026-04-17 13:38 | 53.33290 | -2.86338 | 501 ft | 143 kts | 263° |
| 2026-04-17 13:38 | 53.33201 | -2.88010 | 1245 ft | 147 kts | 260° |
| 2026-04-17 13:38 | 53.33101 | -2.89810 | 1783 ft | 165 kts | 260° |
| 2026-04-17 13:39 | 53.33040 | -2.91834 | 2143 ft | 191 kts | 272° |
| 2026-04-17 13:39 | 53.33472 | -2.94115 | 2567 ft | 223 kts | 290° |
| 2026-04-17 13:39 | 53.34205 | -2.96624 | 2973 ft | 246 kts | 291° |
| 2026-04-17 13:39 | 53.34978 | -2.99218 | 3377 ft | 252 kts | 291° |
| 2026-04-17 13:40 | 53.35848 | -3.01769 | 3781 ft | 261 kts | 302° |
| 2026-04-17 13:40 | 53.37030 | -3.04153 | 4189 ft | 266 kts | 303° |
| 2026-04-17 13:40 | 53.38189 | -3.06519 | 5236 ft | 267 kts | 302° |
| 2026-04-17 13:40 | 53.39367 | -3.08949 | 6341 ft | 270 kts | 300° |
| 2026-04-17 13:41 | 53.40546 | -3.11396 | 7369 ft | 270 kts | 300° |
| 2026-04-17 13:41 | 53.41737 | -3.13869 | 8337 ft | 273 kts | 299° |
| 2026-04-17 13:41 | 53.42942 | -3.16374 | 9265 ft | 278 kts | 299° |
| 2026-04-17 13:41 | 53.44168 | -3.18920 | 10146 ft | 284 kts | 299° |
| 2026-04-17 13:42 | 53.45425 | -3.21535 | 10869 ft | 293 kts | 299° |
| 2026-04-17 13:42 | 53.46723 | -3.24224 | 11669 ft | 298 kts | 299° |
| 2026-04-17 13:42 | 53.48043 | -3.26944 | 12521 ft | 302 kts | 299° |
| 2026-04-17 13:42 | 53.49382 | -3.29705 | 13375 ft | 306 kts | 299° |
| 2026-04-17 13:43 | 53.50728 | -3.32494 | 14150 ft | 309 kts | 299° |
| 2026-04-17 13:43 | 53.52087 | -3.35320 | 14900 ft | 313 kts | 298° |
| 2026-04-17 13:43 | 53.53459 | -3.38181 | 15623 ft | 316 kts | 298° |
| 2026-04-17 13:43 | 53.54828 | -3.41043 | 15928 ft | 319 kts | 298° |
| 2026-04-17 13:44 | 53.56216 | -3.43941 | 16006 ft | 318 kts | 298° |
| 2026-04-17 13:44 | 53.57610 | -3.46845 | 16016 ft | 318 kts | 298° |
| 2026-04-17 13:44 | 53.59002 | -3.49742 | 16018 ft | 318 kts | 298° |
| 2026-04-17 13:44 | 53.60390 | -3.52640 | 16013 ft | 318 kts | 298° |
| 2026-04-17 13:45 | 53.61775 | -3.55539 | 16001 ft | 318 kts | 298° |
| 2026-04-17 13:45 | 53.63164 | -3.58457 | 15733 ft | 319 kts | 298° |
| 2026-04-17 13:45 | 53.64554 | -3.61378 | 15301 ft | 319 kts | 298° |
| 2026-04-17 13:45 | 53.65913 | -3.64327 | 14829 ft | 318 kts | 296° |
| 2026-04-17 13:46 | 53.67208 | -3.67351 | 14421 ft | 317 kts | 295° |
| 2026-04-17 13:46 | 53.68451 | -3.70359 | 14070 ft | 316 kts | 295° |
| 2026-04-17 13:46 | 53.69703 | -3.73424 | 13665 ft | 317 kts | 295° |
| 2026-04-17 13:46 | 53.70955 | -3.76487 | 13144 ft | 317 kts | 295° |
| 2026-04-17 13:47 | 53.72217 | -3.79551 | 12638 ft | 318 kts | 296° |
| 2026-04-17 13:47 | 53.73488 | -3.82621 | 12143 ft | 317 kts | 296° |
| 2026-04-17 13:47 | 53.74751 | -3.85673 | 11643 ft | 316 kts | 296° |
| 2026-04-17 13:47 | 53.76005 | -3.88707 | 11173 ft | 314 kts | 296° |
| 2026-04-17 13:48 | 53.77254 | -3.91725 | 10726 ft | 312 kts | 296° |
| 2026-04-17 13:48 | 53.78492 | -3.94706 | 10331 ft | 308 kts | 296° |
| 2026-04-17 13:48 | 53.79714 | -3.97650 | 9931 ft | 305 kts | 296° |
| 2026-04-17 13:48 | 53.80924 | -4.00573 | 9502 ft | 301 kts | 297° |
| 2026-04-17 13:49 | 53.82105 | -4.03429 | 9071 ft | 298 kts | 297° |
| 2026-04-17 13:49 | 53.83282 | -4.06280 | 8626 ft | 291 kts | 297° |
| 2026-04-17 13:49 | 53.84424 | -4.09042 | 8185 ft | 279 kts | 297° |
| 2026-04-17 13:49 | 53.85520 | -4.11696 | 7766 ft | 273 kts | 297° |
| 2026-04-17 13:50 | 53.86600 | -4.14327 | 7419 ft | 269 kts | 297° |
| 2026-04-17 13:50 | 53.87664 | -4.16918 | 7065 ft | 267 kts | 299° |
| 2026-04-17 13:50 | 53.89055 | -4.19048 | 6946 ft | 280 kts | 324° |
| 2026-04-17 13:50 | 53.90881 | -4.20339 | 6710 ft | 284 kts | 334° |
| 2026-04-17 13:51 | 53.92742 | -4.21448 | 6456 ft | 283 kts | 334° |
| 2026-04-17 13:51 | 53.94594 | -4.22546 | 6130 ft | 281 kts | 335° |
| 2026-04-17 13:51 | 53.96415 | -4.23632 | 5655 ft | 278 kts | 334° |
| 2026-04-17 13:51 | 53.98228 | -4.24713 | 5139 ft | 273 kts | 334° |
| 2026-04-17 13:52 | 54.00015 | -4.25774 | 4620 ft | 269 kts | 334° |
| 2026-04-17 13:52 | 54.01765 | -4.26842 | 4201 ft | 261 kts | 329° |
| 2026-04-17 13:52 | 54.03348 | -4.28157 | 3935 ft | 247 kts | 325° |
| 2026-04-17 13:52 | 54.04839 | -4.29488 | 3613 ft | 238 kts | 324° |
| 2026-04-17 13:53 | 54.06284 | -4.30786 | 3263 ft | 232 kts | 324° |
| 2026-04-17 13:53 | 54.07704 | -4.32069 | 2946 ft | 228 kts | 324° |
| 2026-04-17 13:53 | 54.09077 | -4.33286 | 2765 ft | 217 kts | 322° |
| 2026-04-17 13:53 | 54.10123 | -4.34888 | 2629 ft | 193 kts | 295° |
| 2026-04-17 13:54 | 54.11131 | -4.38722 | 2447 ft | 167 kts | 266° |
| 2026-04-17 13:54 | 54.11032 | -4.40610 | 2394 ft | 160 kts | 252° |
| 2026-04-17 13:55 | 54.10592 | -4.44190 | 2075 ft | 145 kts | 252° |
| 2026-04-17 13:55 | 54.10397 | -4.45789 | 1916 ft | 132 kts | 251° |
| 2026-04-17 13:55 | 54.10029 | -4.48741 | 1565 ft | 125 kts | 249° |
| 2026-04-17 13:56 | 54.09672 | -4.51611 | 1226 ft | 124 kts | 248° |
| 2026-04-17 13:56 | 54.09493 | -4.53050 | 1054 ft | 123 kts | 248° |
| 2026-04-17 13:56 | 54.09316 | -4.54471 | 883 ft | 123 kts | 247° |
| 2026-04-17 13:57 | 54.09137 | -4.55899 | 702 ft | 125 kts | 248° |
| 2026-04-17 13:57 | 54.08953 | -4.57372 | 522 ft | 128 kts | 250° |
| 2026-04-17 13:57 | 54.08590 | -4.60299 | 199 ft | 127 kts | 249° |
| 2026-04-17 13:58 | 54.08412 | -4.61752 | 48 ft | 120 kts | 249° |
| 2026-04-17 13:58 | 54.08222 | -4.63241 | 39 ft | 14 kts | 261° |
| 2026-04-17 13:58 | 54.08277 | -4.63335 | 41 ft | 11 kts | 347° |
| 2026-04-17 13:59 | 54.08393 | -4.63381 | 43 ft | 7 kts | 346° |
| 2026-04-17 13:59 | 54.08448 | -4.63386 | 44 ft | 8 kts | 14° |
| 2026-04-17 13:59 | 54.08497 | -4.63338 | 46 ft | 8 kts | 33° |
| 2026-04-17 14:00 | 54.08537 | -4.63314 | 46 ft | 5 kts | 28° |
| 2026-04-17 14:00 | 54.08557 | -4.63282 | 44 ft | 2 kts | 44° |
| 2026-04-17 14:00 | 54.08562 | -4.63275 | 46 ft | 0 kts | 44° |